Lemars, Iowa
Current Conditions -  °F | °C
As of 4:15 AM on Wednesday 26 Nov 2014 (Local Time) from KLRJ Reporting Station
Light Snow Light Snow  
Wind Chill: 34°   Ceiling: 400
Heat Index: 34°   Visibility: 2.5mi
Dew Point: 34°   Wind: 3mph
Humidity: 100%   Direction: 330°NNW
Pressure: 29.84"   Gusts: NA
Location:  42.8179°N, 96.1854°W
Report Text: KLRJ 261015Z AUTO 33003KT 2 1/2SM -SN OVC004 01/01 A2984 RMK AO2
Loading
Personal Weather Stations






























Interactive Weather Map New forecast layout! Learn more

10-Day Weather Forecast

Advertisements
Track Severe Weather on mobile